Latest Weather Observations for Hobart Airport

IDT60801

Issued at 9:05 am EST Thursday 18 September 2014 (issued every 30 minutes, with the page automatically refreshed every 10 minutes)

About weather observations | Map of weather stations | Latest weather observations for TAS | Other Formats
Station Details ID: 094008 Name: HOBART AIRPORT Lat: -42.83 Lon: 147.50 Height: 4.0 m
Data from the previous 72 hours. | See also: Recent months at Hobart Airport
Date/Time
EST
Temp
°C
App
Temp
°C
Dew
Point
Rel
Hum
%
Delta-T
°C
Wind Press
QNH
hPa
Press
MSL
hPa
Rain
since 9 am
mm
Dir
 
Spd
km/h
Gust
km/h
Spd
kts
Gust
kts
18/09:00am 9.4 3.3 2.6 62 2.9 SW 24 37 13 20 1015.8 1015.8 2.2
18/08:30am 8.0 2.3 2.8 70 2.2 SW 22 30 12 16 1015.6 1015.6 2.2
18/08:00am 7.7 2.4 3.0 72 2.0 WSW 20 28 11 15 1015.5 1015.5 2.2
18/07:30am 7.7 2.0 2.7 70 2.1 SW 22 35 12 19 1015.2 1015.2 2.2
18/07:00am 7.9 2.5 2.4 68 2.3 SW 20 30 11 16 1014.6 1014.6 2.2
18/06:30am 7.9 2.5 1.5 64 2.6 SW 19 30 10 16 1014.2 1014.2 2.2
18/05:30am 8.0 3.3 1.1 62 2.8 W 15 24 8 13 1013.2 1013.2 2.2
18/05:00am 7.5 2.4 1.0 63 2.6 WSW 17 28 9 15 1012.9 1012.9 2.2
18/04:30am 8.1 2.5 0.9 60 2.9 WSW 20 32 11 17 1012.5 1012.5 2.2
18/04:00am 7.9 0.5 1.8 65 2.5 WSW 30 43 16 23 1012.2 1012.2 2.2
18/03:30am 8.1 0.2 1.2 62 2.8 WSW 32 50 17 27 1011.6 1011.6 2.2
18/03:00am 7.9 0.8 1.2 62 2.7 WSW 28 43 15 23 1011.7 1011.7 2.2
18/02:30am 8.0 1.0 2.0 66 2.5 WSW 28 39 15 21 1011.2 1011.2 2.2
18/02:00am 8.1 1.8 1.8 64 2.6 WSW 24 33 13 18 1011.0 1011.0 2.2
18/01:30am 7.7 1.1 2.1 67 2.3 WSW 26 39 14 21 1010.7 1010.7 2.2
18/01:00am 7.5 0.7 3.0 73 1.9 WSW 28 41 15 22 1010.3 1010.3 2.2
18/12:30am 7.8 1.7 2.5 69 2.2 WSW 24 37 13 20 1010.1 1010.1 1.6
18/12:18am 7.8 0.9 2.8 70 2.1 WSW 28 50 15 27 1009.8 1009.8 1.6
18/12:00am 7.3 -0.2 3.3 76 1.7 WSW 32 46 17 25 1009.5 1009.5 1.6
 
Date/Time
EST
Temp
°C
App
Temp
°C
Dew
Point
Rel
Hum
%
Delta-T
°C
Wind Press
QNH
hPa
Press
MSL
hPa
Rain
since 9 am
mm
Dir
 
Spd
km/h
Gust
km/h
Spd
kts
Gust
kts
17/11:51pm 7.7 0.6 1.6 65 2.5 WSW 28 46 15 25 1009.5 1009.5 1.4
17/11:30pm 8.1 0.9 0.9 60 2.9 WSW 28 39 15 21 1009.3 1009.3 1.4
17/11:00pm 7.9 1.4 0.4 59 3.0 W 24 33 13 18 1008.9 1008.9 1.4
17/10:30pm 7.9 2.6 -0.6 55 3.3 W 17 32 9 17 1008.7 1008.7 1.4
17/10:00pm 6.8 1.3 0.5 64 2.5 NW 19 28 10 15 1008.4 1008.4 1.4
17/09:30pm 7.0 2.1 -0.2 60 2.8 NNW 15 22 8 12 1008.1 1008.1 1.4
17/09:00pm 6.1 1.8 -1.7 57 2.9 W 11 17 6 9 1007.9 1007.9 1.4
17/08:30pm 6.4 1.7 -1.7 56 3.0 WNW 13 15 7 8 1007.7 1007.7 1.4
17/08:00pm 6.9 2.2 -2.0 53 3.3 WNW 13 17 7 9 1007.2 1007.2 1.4
17/07:30pm 7.6 0.4 -2.0 50 3.6 WSW 26 35 14 19 1006.8 1006.8 1.4
17/07:00pm 7.9 0.7 -1.9 50 3.7 W 26 33 14 18 1006.5 1006.5 1.4
17/06:30pm 8.1 1.3 -1.6 50 3.7 WSW 24 33 13 18 1006.2 1006.2 1.4
17/06:00pm 8.5 0.7 -1.0 51 3.7 WSW 30 35 16 19 1005.9 1005.9 1.4
17/05:30pm 8.9 1.8 -1.1 49 3.9 WSW 26 37 14 20 1005.4 1005.4 1.4
17/05:00pm 9.6 1.5 -0.4 49 4.0 WSW 32 48 17 26 1004.9 1004.9 1.4
17/04:30pm 8.9 1.3 0.5 55 3.4 W 30 41 16 22 1004.5 1004.5 1.4
17/04:16pm 9.0 0.5 1.2 58 3.2 WSW 35 54 19 29 1004.2 1004.2 1.4
17/04:00pm 9.2 2.1 1.2 57 3.3 WSW 28 43 15 23 1003.9 1003.9 1.4
17/03:30pm 10.3 4.0 1.5 54 3.7 SW 24 39 13 21 1003.5 1003.5 1.4
17/03:00pm 10.1 4.5 1.5 55 3.6 WSW 20 32 11 17 1003.3 1003.3 1.4
17/02:30pm 10.0 4.1 1.4 55 3.6 SW 22 33 12 18 1003.4 1003.4 1.4
17/02:00pm 9.3 3.7 1.0 56 3.4 SW 20 32 11 17 1003.4 1003.4 1.4
17/01:30pm 8.9 2.0 0.2 54 3.5 SW 26 35 14 19 1003.2 1003.2 1.4
17/01:00pm 9.2 1.8 -0.7 50 3.9 W 28 37 15 20 1003.3 1003.3 1.4
17/12:30pm 8.0 2.7 2.8 70 2.2 SW 20 30 11 16 1003.4 1003.4 1.4
17/12:00pm 7.0 -0.5 3.7 79 1.4 SW 32 39 17 21 1003.6 1003.6 0.8
17/11:30am 8.8 3.6 5.3 79 1.6 W 22 32 12 17 1003.2 1003.2 0.4
17/11:00am 9.6 2.3 4.7 71 2.2 WNW 32 37 17 20 1002.8 1002.8 0.0
17/10:30am 12.6 6.9 2.6 50 4.4 WNW 22 30 12 16 1002.7 1002.7 0.0
17/10:00am 12.6 8.0 3.7 54 4.0 NW 17 22 9 12 1003.0 1003.0 0.0
17/09:30am 11.2 7.8 4.1 61 3.2 NNW 11 17 6 9 1003.7 1003.7 0.0
17/09:00am 10.5 6.0 4.0 64 2.9 NNW 17 24 9 13 1003.9 1003.9 Trace
17/08:30am 8.7 5.0 4.7 76 1.8 N 13 20 7 11 1004.2 1004.2 -
17/08:00am 8.2 5.2 4.1 75 1.8 NW 9 15 5 8 1004.3 1004.3 -
17/07:30am 7.8 5.2 4.1 77 1.6 NW 7 11 4 6 1004.4 1004.4 -
17/07:00am 7.6 5.0 4.2 79 1.5 N 7 9 4 5 1004.7 1004.7 -
17/06:30am 7.3 4.2 3.8 78 1.5 NW 9 13 5 7 1004.9 1004.9 -
17/06:00am 7.1 4.1 4.3 82 1.2 NNW 9 13 5 7 1004.9 1004.9 -
17/05:30am 7.0 3.3 4.5 84 1.1 NW 13 17 7 9 1005.1 1005.1 -
17/05:00am 7.6 5.0 4.2 79 1.5 NNW 7 11 4 6 1005.3 1005.3 -
17/04:30am 6.8 3.8 4.3 84 1.1 WNW 9 11 5 6 1005.7 1005.7 -
17/04:00am 6.2 2.4 3.9 85 1.0 WNW 13 15 7 8 1005.9 1005.9 -
17/03:30am 7.4 4.5 4.7 83 1.2 NNW 9 15 5 8 1006.1 1006.1 -
17/03:00am 6.9 3.2 4.4 84 1.1 NW 13 15 7 8 1006.5 1006.5 0.0
17/02:30am 6.9 2.8 4.4 84 1.1 NW 15 19 8 10 1006.8 1006.8 -
17/02:00am 7.3 2.9 4.6 83 1.2 NW 17 20 9 11 1007.1 1007.1 -
17/01:30am 7.7 3.3 4.8 82 1.3 NW 17 19 9 10 1007.5 1007.5 -
17/01:00am 7.7 3.7 4.8 82 1.3 NW 15 19 8 10 1007.8 1007.8 -
17/12:30am 7.8 3.0 4.6 80 1.4 NW 19 26 10 14 1007.8 1007.8 -
17/12:00am 7.6 3.1 4.4 80 1.4 NW 17 20 9 11 1007.8 1007.8 -
 
Date/Time
EST
Temp
°C
App
Temp
°C
Dew
Point
Rel
Hum
%
Delta-T
°C
Wind Press
QNH
hPa
Press
MSL
hPa
Rain
since 9 am
mm
Dir
 
Spd
km/h
Gust
km/h
Spd
kts
Gust
kts
16/11:30pm 7.8 2.4 4.4 79 1.5 NW 22 26 12 14 1007.9 1007.9 -
16/11:00pm 8.0 3.5 4.3 77 1.6 NW 17 22 9 12 1008.3 1008.3 -
16/10:30pm 7.4 2.9 4.4 81 1.3 NNW 17 20 9 11 1008.6 1008.6 -
16/10:00pm 8.8 4.7 4.3 73 2.0 NNW 15 19 8 10 1008.8 1008.8 -
16/09:30pm 8.8 5.9 4.5 74 1.9 N 9 11 5 6 1008.8 1008.8 -
16/09:00pm 9.0 7.0 4.5 73 2.0 NNW 4 7 2 4 1009.0 1009.0 0.0
16/08:30pm 9.0 7.1 4.7 74 1.9 WNW 4 9 2 5 1008.9 1008.9 -
16/08:00pm 8.3 7.1 4.7 78 1.6 CALM 0 0 0 0 1009.0 1009.0 -
16/07:30pm 9.1 6.9 5.1 76 1.8 NNE 6 7 3 4 1008.9 1008.9 -
16/07:00pm 9.5 6.8 5.6 76 1.8 NNE 9 11 5 6 1008.9 1008.9 -
16/06:30pm 11.4 7.5 5.3 66 2.8 NE 15 17 8 9 1008.8 1008.8 -
16/06:00pm 12.0 8.1 5.3 63 3.1 NE 15 20 8 11 1008.9 1008.9 -
16/05:30pm 12.5 8.6 5.4 62 3.3 NE 15 22 8 12 1008.8 1008.8 -
16/05:00pm 12.8 8.6 5.8 62 3.3 NE 17 20 9 11 1008.6 1008.6 -
16/04:30pm 13.1 8.9 5.9 61 3.4 NE 17 20 9 11 1008.6 1008.6 -
16/04:00pm 13.8 11.2 4.2 52 4.4 NE 7 9 4 5 1008.6 1008.6 -
16/03:30pm 13.9 11.1 5.2 55 4.1 SE 9 13 5 7 1008.8 1008.8 -
16/03:00pm 14.0 10.4 5.0 54 4.2 SSE 13 15 7 8 1008.8 1008.8 0.0
16/02:30pm 13.3 9.6 4.6 55 4.0 SE 13 17 7 9 1009.0 1009.0 0.0
16/02:00pm 13.7 9.3 4.6 54 4.2 SE 17 20 9 11 1009.2 1009.2 0.0
16/01:30pm 13.9 10.6 4.6 53 4.3 ESE 11 19 6 10 1009.4 1009.4 0.0
16/01:00pm 13.6 10.5 3.4 50 4.6 NE 9 11 5 6 1009.7 1009.7 0.0
16/12:30pm 14.2 11.5 3.9 50 4.7 N 7 13 4 7 1010.4 1010.4 0.0
16/12:00pm 13.4 10.2 3.1 49 4.6 NNW 9 17 5 9 1011.2 1011.2 0.0
16/11:30am 13.1 9.1 3.0 50 4.5 WNW 13 17 7 9 1011.6 1011.6 0.0
16/11:00am 13.3 9.4 3.2 50 4.5 NW 13 17 7 9 1012.0 1012.0 0.0
16/10:30am 12.0 8.6 4.0 58 3.6 NW 11 15 6 8 1012.5 1012.5 0.0
16/10:00am 11.2 7.7 3.5 59 3.4 NW 11 13 6 7 1012.9 1012.9 0.0
16/09:30am 10.2 6.3 3.3 62 3.0 NNW 13 19 7 10 1013.2 1013.2 0.0
16/09:00am 8.8 4.4 2.9 66 2.5 NNW 15 19 8 10 1013.5 1013.5 0.0
16/08:30am 7.5 3.2 3.3 75 1.8 NNW 15 20 8 11 1013.7 1013.7 0.0
16/08:00am 6.5 2.5 2.9 78 1.5 NW 13 17 7 9 1013.9 1013.9 0.0
16/07:30am 5.0 1.8 3.1 87 0.8 NNW 9 13 5 7 1013.7 1013.7 0.0
16/07:00am 4.0 1.2 2.0 87 0.8 N 6 7 3 4 1013.8 1013.8 0.0
16/06:30am 3.7 0.3 1.7 87 0.8 WSW 9 13 5 7 1013.8 1013.8 0.0
16/06:00am 3.2 -1.0 1.7 90 0.6 NW 13 17 7 9 1013.7 1013.7 0.0
16/05:30am 3.1 -0.8 1.3 88 0.7 WSW 11 17 6 9 1013.7 1013.7 0.0
16/05:00am 4.1 0.4 2.4 89 0.7 NNW 11 19 6 10 1013.7 1013.7 0.0
16/04:30am 4.1 -0.4 2.4 89 0.7 NW 15 17 8 9 1013.6 1013.6 0.0
16/04:00am 3.3 -0.5 2.0 91 0.5 NW 11 13 6 7 1013.6 1013.6 0.0
16/03:30am 4.0 -0.1 2.5 90 0.6 NW 13 17 7 9 1013.8 1013.8 0.0
16/03:00am 3.8 0.1 2.6 92 0.5 NNW 11 17 6 9 1013.9 1013.9 0.0
16/02:30am 3.9 -0.1 2.7 92 0.5 NW 13 15 7 8 1014.3 1014.3 0.0
16/02:00am 3.5 -0.9 2.5 93 0.4 NW 15 17 8 9 1014.6 1014.6 0.0
16/01:30am 3.7 0.0 2.4 91 0.5 NW 11 13 6 7 1014.9 1014.9 0.0
16/01:00am 3.0 -0.4 2.0 93 0.4 NW 9 9 5 5 1015.4 1015.4 0.0
16/12:30am 4.5 1.2 2.5 87 0.8 NW 9 11 5 6 1015.6 1015.6 0.0
16/12:00am 4.4 2.8 2.4 87 0.8 CALM 0 0 0 0 1015.7 1015.7 0.0
 
Date/Time
EST
Temp
°C
App
Temp
°C
Dew
Point
Rel
Hum
%
Delta-T
°C
Wind Press
QNH
hPa
Press
MSL
hPa
Rain
since 9 am
mm
Dir
 
Spd
km/h
Gust
km/h
Spd
kts
Gust
kts
15/11:30pm 4.8 2.9 2.6 86 0.9 NW 2 7 1 4 1016.1 1016.1 0.0
15/11:00pm 5.2 2.0 3.3 87 0.8 NW 9 13 5 7 1016.3 1016.3 0.0
15/10:30pm 5.5 3.9 2.6 81 1.2 CALM 0 0 0 0 1016.5 1016.5 0.0
15/10:00pm 5.8 4.2 2.6 80 1.3 CALM 0 0 0 0 1016.7 1016.7 0.0
15/09:30pm 4.3 2.6 1.8 84 1.0 CALM 0 0 0 0 1016.8 1016.8 0.0
15/09:00pm 4.6 2.9 1.8 82 1.1 CALM 0 0 0 0 1016.8 1016.8 0.0
15/08:30pm 4.6 2.2 2.1 84 1.0 N 4 7 2 4 1017.1 1017.1 0.0
15/08:00pm 5.4 3.7 1.6 76 1.5 CALM 0 0 0 0 1017.0 1017.0 0.0
15/07:30pm 6.4 4.8 2.2 74 1.7 CALM 0 0 0 0 1017.1 1017.1 0.0
15/07:00pm 8.1 5.1 2.1 66 2.5 SSE 7 7 4 4 1017.0 1017.0 0.0
15/06:30pm 8.4 4.7 2.4 66 2.5 SSE 11 15 6 8 1016.8 1016.8 0.0
15/06:00pm 9.3 4.8 2.4 62 2.9 S 15 19 8 10 1016.6 1016.6 0.0
15/05:30pm 10.2 5.3 2.2 57 3.4 S 17 19 9 10 1016.4 1016.4 0.0
15/05:00pm 11.0 5.7 2.1 54 3.8 S 19 26 10 14 1016.5 1016.5 0.0
15/04:30pm 10.9 6.3 1.6 52 3.9 SSE 15 19 8 10 1016.5 1016.5 0.0
15/04:00pm 11.2 5.7 0.5 47 4.4 SSE 19 22 10 12 1016.4 1016.4 0.0
15/03:30pm 11.4 6.0 1.4 50 4.2 SSE 19 26 10 14 1016.4 1016.4 0.0
15/03:00pm 11.4 6.2 2.6 54 3.8 SE 19 26 10 14 1016.7 1016.7 0.0
15/02:30pm 12.1 6.5 1.5 48 4.5 SE 20 30 11 16 1016.8 1016.8 0.0
15/02:00pm 12.1 6.5 1.2 47 4.6 SE 20 28 11 15 1017.0 1017.0 0.0
15/01:30pm 11.9 6.6 -0.4 42 5.0 SE 17 26 9 14 1017.2 1017.2 0.0
15/01:00pm 11.6 6.4 0.1 45 4.7 SE 17 22 9 12 1017.6 1017.6 0.0
15/12:30pm 11.5 6.6 -0.7 43 4.9 SSW 15 20 8 11 1018.1 1018.1 0.0
15/12:00pm 11.7 6.1 -0.1 44 4.8 SW 19 22 10 12 1018.4 1018.4 0.0
15/11:30am 11.6 5.7 -0.6 43 4.9 S 20 26 11 14 1018.5 1018.5 0.0
15/11:00am 12.0 7.5 0.0 43 4.9 SSW 13 24 7 13 1018.8 1018.8 0.0
15/10:30am 10.4 4.7 -0.7 46 4.4 WSW 19 22 10 12 1019.1 1019.1 0.0
15/10:00am 10.4 6.8 0.9 52 3.9 NNW 9 17 5 9 1019.2 1019.2 0.0
15/09:30am 9.3 5.0 0.9 55 3.4 NW 13 19 7 10 1019.1 1019.1 0.0

Other Formats:

Comma delimited format used in spreadsheet applications
http://www.bom.gov.au/fwo/IDT60801/IDT60801.94975.axf

JavaScript Object Notation format (JSON) in row-major order
http://www.bom.gov.au/fwo/IDT60801/IDT60801.94975.json